»·PEaware :: N738KG KJFK-KEWR

N738KG :: KJFK-KEWR

FLIGHT INFORMATION

Flight Status: Arrived
Operator: Privately registered:
United States
More flights under this callsign
Pilot: C P J. (490)
Aircraft: BOEING 737-800
(B738)
More flights by this aircraft type
Origin: KJFK Kennedy Intl
United States
Destination: KEWR Newark Intl
United States
More flights between these airports :: More routes between these airports
Route: +SKORR3 RNGRR TICKL PTW METRO PHLBO3
File this flight plan on PilotEdge
Remarks:
Altitude:
(Current/Filed)
25,000ft
Speed:
(Current/Filed)
300kts
Departed: 07-Feb-17 04:11 PM
Arrived: 07-Feb-17 04:55 PM
Distance/Time
Traveled:
18nm/0:44
Distance/Time
To Go:
Arrived

Flight Plot

Page will automatically refresh every two minutes.


Map Options




Map Legend


Flown Route
Filed Route
Departure Airport
Arrival Airport
Navaid (VOR, NDB)
Fix

Horizontal Profiles

Position Reports

Time Latitude Longitude Heading Altitude Ground
Speed
07-Feb-17 15:58 40.642214 -73.777670 291 21ft 0kts
07-Feb-17 15:59 40.642214 -73.777670 291 21ft 0kts
07-Feb-17 16:00 40.642214 -73.777670 291 21ft 0kts
07-Feb-17 16:01 40.642214 -73.777670 291 21ft 0kts
07-Feb-17 16:02 40.642214 -73.777670 291 21ft 0kts
07-Feb-17 16:03 40.642214 -73.777670 291 21ft 0kts
07-Feb-17 16:04 40.641944 -73.777985 162 21ft 13kts
07-Feb-17 16:05 40.640652 -73.774257 122 21ft 0kts
07-Feb-17 16:06 40.638070 -73.776030 210 21ft 29kts
07-Feb-17 16:07 40.635209 -73.776938 209 21ft 22kts
07-Feb-17 16:08 40.632911 -73.779860 201 21ft 0kts
07-Feb-17 16:09 40.632909 -73.779861 201 21ft 0kts
07-Feb-17 16:10 40.632116 -73.780652 279 21ft 7kts
07-Feb-17 16:11 40.635281 -73.787726 302 21ft 117kts
07-Feb-17 16:12 40.644585 -73.850373 234 2155ft 214kts
07-Feb-17 16:13 40.597828 -73.907456 211 4709ft 242kts
07-Feb-17 16:14 40.538367 -73.955082 211 4980ft 248kts
07-Feb-17 16:15 40.477700 -73.999285 185 5922ft 260kts
07-Feb-17 16:16 40.439178 -73.930196 80 5905ft 291kts
07-Feb-17 16:17 40.463148 -73.825518 75 5871ft 302kts
07-Feb-17 16:18 40.487990 -73.720143 75 5876ft 303kts
07-Feb-17 16:19 40.512975 -73.614165 75 5878ft 303kts
07-Feb-17 16:20 40.537899 -73.508407 75 5880ft 303kts
07-Feb-17 16:21 40.569339 -73.406017 40 6009ft 307kts
07-Feb-17 16:22 40.637737 -73.416683 288 6015ft 256kts
07-Feb-17 16:23 40.633830 -73.504101 255 5982ft 236kts
07-Feb-17 16:24 40.624759 -73.578806 255 5978ft 186kts
07-Feb-17 16:25 40.617513 -73.644462 255 5978ft 178kts
07-Feb-17 16:26 40.610594 -73.708684 255 5978ft 177kts
07-Feb-17 16:27 40.603818 -73.773096 255 5977ft 178kts
07-Feb-17 16:28 40.597070 -73.837554 255 5973ft 178kts
07-Feb-17 16:29 40.590415 -73.901953 255 5648ft 176kts
07-Feb-17 16:30 40.556142 -73.942127 211 4995ft 173kts
07-Feb-17 16:31 40.514323 -73.975626 212 5001ft 176kts
07-Feb-17 16:32 40.472613 -74.009597 215 5000ft 175kts
07-Feb-17 16:33 40.456103 -74.063830 256 5001ft 168kts
07-Feb-17 16:34 40.449784 -74.125275 256 4999ft 169kts
07-Feb-17 16:35 40.443748 -74.186366 255 3622ft 171kts
07-Feb-17 16:36 40.440868 -74.247907 285 3048ft 183kts
07-Feb-17 16:37 40.493398 -74.264392 356 3003ft 207kts
07-Feb-17 16:38 40.548610 -74.269247 310 3070ft 185kts
07-Feb-17 16:39 40.579355 -74.320683 294 3000ft 176kts
07-Feb-17 16:40 40.564954 -74.369813 226 3006ft 151kts
07-Feb-17 16:41 40.524367 -74.344170 129 3022ft 232kts
07-Feb-17 16:42 40.540552 -74.263799 40 3025ft 225kts
07-Feb-17 16:43 40.591064 -74.229146 23 1987ft 180kts
07-Feb-17 16:44 40.632194 -74.203040 25 1083ft 152kts
07-Feb-17 16:45 40.678302 -74.179864 23 1290ft 209kts
07-Feb-17 16:46 40.728614 -74.199833 296 3030ft 228kts
07-Feb-17 16:47 40.729185 -74.264442 209 3046ft 195kts
07-Feb-17 16:48 40.680344 -74.296682 206 3002ft 206kts
07-Feb-17 16:49 40.628182 -74.330117 206 2998ft 209kts
07-Feb-17 16:50 40.573952 -74.338260 140 3043ft 229kts
07-Feb-17 16:51 40.562743 -74.264624 71 2754ft 202kts
07-Feb-17 16:52 40.600473 -74.222360 23 1791ft 167kts
07-Feb-17 16:53 40.639916 -74.198192 26 935ft 147kts
07-Feb-17 16:54 40.675503 -74.175567 28 180ft 138kts
07-Feb-17 16:55 40.694570 -74.164280 308 26ft 0kts
07-Feb-17 16:56 40.695686 -74.167163 297 26ft 0kts
07-Feb-17 16:57 40.697812 -74.166730 26 26ft 20kts
07-Feb-17 16:58 40.702824 -74.165774 275 26ft 26kts
07-Feb-17 16:59 40.705087 -74.169963 301 26ft 16kts
07-Feb-17 17:00 40.705412 -74.172150 232 26ft 0kts
07-Feb-17 17:01 40.705411 -74.172152 232 26ft 0kts
07-Feb-17 17:02 40.705410 -74.172152 232 26ft 0kts

Navigation Log

Ident Type
Flight plan parsing failed, navigation log unavailable